sensor_id;sensor_type;location;lat;lon;timestamp;temperature;humidity
36374;DHT22;22399;51.346;12.372;2023-05-10T00:00:50;11.20;70.80
36374;DHT22;22399;51.346;12.372;2023-05-10T00:03:19;11.20;71.10
36374;DHT22;22399;51.346;12.372;2023-05-10T00:05:47;11.20;71.20
36374;DHT22;22399;51.346;12.372;2023-05-10T00:08:16;11.20;71.30
36374;DHT22;22399;51.346;12.372;2023-05-10T00:10:44;11.20;71.50
36374;DHT22;22399;51.346;12.372;2023-05-10T00:13:12;11.10;71.50
36374;DHT22;22399;51.346;12.372;2023-05-10T00:15:40;11.10;71.60
36374;DHT22;22399;51.346;12.372;2023-05-10T00:18:10;11.10;71.70
36374;DHT22;22399;51.346;12.372;2023-05-10T00:20:38;11.10;71.70
36374;DHT22;22399;51.346;12.372;2023-05-10T00:23:06;11.10;71.70
36374;DHT22;22399;51.346;12.372;2023-05-10T00:25:34;11.00;71.80
36374;DHT22;22399;51.346;12.372;2023-05-10T00:28:03;11.00;71.90
36374;DHT22;22399;51.346;12.372;2023-05-10T00:30:31;11.00;72.10
36374;DHT22;22399;51.346;12.372;2023-05-10T00:33:01;11.00;72.20
36374;DHT22;22399;51.346;12.372;2023-05-10T00:35:31;10.90;72.40
36374;DHT22;22399;51.346;12.372;2023-05-10T00:37:59;10.90;72.50
36374;DHT22;22399;51.346;12.372;2023-05-10T00:40:27;10.90;72.60
36374;DHT22;22399;51.346;12.372;2023-05-10T00:43:02;10.90;72.70
36374;DHT22;22399;51.346;12.372;2023-05-10T00:45:31;10.90;72.80
36374;DHT22;22399;51.346;12.372;2023-05-10T00:48:00;10.90;72.90
36374;DHT22;22399;51.346;12.372;2023-05-10T00:50:30;10.90;72.90
36374;DHT22;22399;51.346;12.372;2023-05-10T00:52:59;10.90;73.10
36374;DHT22;22399;51.346;12.372;2023-05-10T00:55:27;10.80;73.10
36374;DHT22;22399;51.346;12.372;2023-05-10T00:57:55;10.80;73.30
36374;DHT22;22399;51.346;12.372;2023-05-10T01:00:24;10.80;73.40
36374;DHT22;22399;51.346;12.372;2023-05-10T01:02:52;10.80;73.40
36374;DHT22;22399;51.346;12.372;2023-05-10T01:05:21;10.70;73.60
36374;DHT22;22399;51.346;12.372;2023-05-10T01:07:51;10.70;73.70
36374;DHT22;22399;51.346;12.372;2023-05-10T01:10:19;10.70;73.90
36374;DHT22;22399;51.346;12.372;2023-05-10T01:12:47;10.60;73.90
36374;DHT22;22399;51.346;12.372;2023-05-10T01:15:15;10.60;74.10
36374;DHT22;22399;51.346;12.372;2023-05-10T01:17:44;10.60;74.20
36374;DHT22;22399;51.346;12.372;2023-05-10T01:20:14;10.60;74.30
36374;DHT22;22399;51.346;12.372;2023-05-10T01:22:53;10.50;74.50
36374;DHT22;22399;51.346;12.372;2023-05-10T01:25:37;10.50;74.60
36374;DHT22;22399;51.346;12.372;2023-05-10T01:28:15;10.50;74.90
36374;DHT22;22399;51.346;12.372;2023-05-10T01:30:50;10.40;75.00
36374;DHT22;22399;51.346;12.372;2023-05-10T01:33:23;10.40;75.00
36374;DHT22;22399;51.346;12.372;2023-05-10T01:35:55;10.40;75.10
36374;DHT22;22399;51.346;12.372;2023-05-10T01:38:28;10.40;75.30
36374;DHT22;22399;51.346;12.372;2023-05-10T01:41:00;10.40;75.50
36374;DHT22;22399;51.346;12.372;2023-05-10T01:43:33;10.40;75.50
36374;DHT22;22399;51.346;12.372;2023-05-10T01:46:04;10.40;75.60
36374;DHT22;22399;51.346;12.372;2023-05-10T01:48:40;10.40;75.60
36374;DHT22;22399;51.346;12.372;2023-05-10T01:51:13;10.40;75.60
36374;DHT22;22399;51.346;12.372;2023-05-10T01:53:42;10.40;75.70
36374;DHT22;22399;51.346;12.372;2023-05-10T01:56:12;10.40;75.80
36374;DHT22;22399;51.346;12.372;2023-05-10T01:58:40;10.30;75.80
36374;DHT22;22399;51.346;12.372;2023-05-10T02:01:12;10.30;75.80
36374;DHT22;22399;51.346;12.372;2023-05-10T02:03:42;10.30;76.00
36374;DHT22;22399;51.346;12.372;2023-05-10T02:06:12;10.30;76.10
36374;DHT22;22399;51.346;12.372;2023-05-10T02:08:41;10.30;76.50
36374;DHT22;22399;51.346;12.372;2023-05-10T02:11:10;10.30;76.20
36374;DHT22;22399;51.346;12.372;2023-05-10T02:13:39;10.30;76.40
36374;DHT22;22399;51.346;12.372;2023-05-10T02:16:08;10.30;76.30
36374;DHT22;22399;51.346;12.372;2023-05-10T02:18:38;10.30;76.30
36374;DHT22;22399;51.346;12.372;2023-05-10T02:21:09;10.30;76.40
36374;DHT22;22399;51.346;12.372;2023-05-10T02:23:38;10.20;76.40
36374;DHT22;22399;51.346;12.372;2023-05-10T02:26:07;10.30;76.60
36374;DHT22;22399;51.346;12.372;2023-05-10T02:28:36;10.20;76.50
36374;DHT22;22399;51.346;12.372;2023-05-10T02:31:05;10.20;76.70
36374;DHT22;22399;51.346;12.372;2023-05-10T02:33:33;10.20;76.80
36374;DHT22;22399;51.346;12.372;2023-05-10T02:36:03;10.20;76.80
36374;DHT22;22399;51.346;12.372;2023-05-10T02:38:33;10.20;76.80
36374;DHT22;22399;51.346;12.372;2023-05-10T02:41:03;10.20;77.00
36374;DHT22;22399;51.346;12.372;2023-05-10T02:43:32;10.20;77.00
36374;DHT22;22399;51.346;12.372;2023-05-10T02:46:01;10.20;77.00
36374;DHT22;22399;51.346;12.372;2023-05-10T02:48:30;10.20;77.10
36374;DHT22;22399;51.346;12.372;2023-05-10T02:51:00;10.20;77.20
36374;DHT22;22399;51.346;12.372;2023-05-10T02:53:30;10.10;77.30
36374;DHT22;22399;51.346;12.372;2023-05-10T02:56:01;10.10;77.40
36374;DHT22;22399;51.346;12.372;2023-05-10T02:58:30;10.10;77.50
36374;DHT22;22399;51.346;12.372;2023-05-10T03:00:59;10.20;77.60
36374;DHT22;22399;51.346;12.372;2023-05-10T03:03:28;10.20;77.50
36374;DHT22;22399;51.346;12.372;2023-05-10T03:05:56;10.10;77.50
36374;DHT22;22399;51.346;12.372;2023-05-10T03:08:25;10.20;77.60
36374;DHT22;22399;51.346;12.372;2023-05-10T03:11:07;10.20;78.50
36374;DHT22;22399;51.346;12.372;2023-05-10T03:13:47;10.20;77.70
36374;DHT22;22399;51.346;12.372;2023-05-10T03:16:19;10.20;77.80
36374;DHT22;22399;51.346;12.372;2023-05-10T03:18:50;10.20;77.70
36374;DHT22;22399;51.346;12.372;2023-05-10T03:21:22;10.20;77.80
36374;DHT22;22399;51.346;12.372;2023-05-10T03:23:55;10.10;77.80
36374;DHT22;22399;51.346;12.372;2023-05-10T03:26:26;10.20;78.00
36374;DHT22;22399;51.346;12.372;2023-05-10T03:29:05;10.20;78.00
36374;DHT22;22399;51.346;12.372;2023-05-10T03:31:34;10.20;78.00
36374;DHT22;22399;51.346;12.372;2023-05-10T03:34:03;10.30;78.00
36374;DHT22;22399;51.346;12.372;2023-05-10T03:36:31;10.20;77.90
36374;DHT22;22399;51.346;12.372;2023-05-10T03:39:00;10.30;78.00
36374;DHT22;22399;51.346;12.372;2023-05-10T03:41:28;10.30;78.10
36374;DHT22;22399;51.346;12.372;2023-05-10T03:43:57;10.30;78.10
36374;DHT22;22399;51.346;12.372;2023-05-10T03:46:27;10.30;78.80
36374;DHT22;22399;51.346;12.372;2023-05-10T03:48:55;10.30;78.10
36374;DHT22;22399;51.346;12.372;2023-05-10T03:51:24;10.30;78.10
36374;DHT22;22399;51.346;12.372;2023-05-10T03:53:54;10.30;78.20
36374;DHT22;22399;51.346;12.372;2023-05-10T03:56:23;10.40;78.30
36374;DHT22;22399;51.346;12.372;2023-05-10T03:58:51;10.40;78.30
36374;DHT22;22399;51.346;12.372;2023-05-10T04:01:19;10.40;78.20
36374;DHT22;22399;51.346;12.372;2023-05-10T04:03:49;10.50;78.30
36374;DHT22;22399;51.346;12.372;2023-05-10T04:06:17;10.60;78.30
36374;DHT22;22399;51.346;12.372;2023-05-10T04:08:46;10.70;78.30
36374;DHT22;22399;51.346;12.372;2023-05-10T04:11:14;10.80;78.10
36374;DHT22;22399;51.346;12.372;2023-05-10T04:13:42;10.80;78.00
36374;DHT22;22399;51.346;12.372;2023-05-10T04:16:10;10.90;77.80
36374;DHT22;22399;51.346;12.372;2023-05-10T04:18:38;11.10;77.60
36374;DHT22;22399;51.346;12.372;2023-05-10T04:21:12;11.10;77.40
36374;DHT22;22399;51.346;12.372;2023-05-10T04:23:40;11.20;77.30
36374;DHT22;22399;51.346;12.372;2023-05-10T04:26:09;11.30;77.10
36374;DHT22;22399;51.346;12.372;2023-05-10T04:28:37;11.40;77.10
36374;DHT22;22399;51.346;12.372;2023-05-10T04:31:06;11.50;76.80
36374;DHT22;22399;51.346;12.372;2023-05-10T04:33:34;11.60;76.60
36374;DHT22;22399;51.346;12.372;2023-05-10T04:36:03;11.60;76.60
36374;DHT22;22399;51.346;12.372;2023-05-10T04:38:33;11.60;76.50
36374;DHT22;22399;51.346;12.372;2023-05-10T04:41:04;11.60;76.60
36374;DHT22;22399;51.346;12.372;2023-05-10T04:43:33;11.50;76.50
36374;DHT22;22399;51.346;12.372;2023-05-10T04:46:01;11.60;76.60
36374;DHT22;22399;51.346;12.372;2023-05-10T04:48:29;11.60;76.70
36374;DHT22;22399;51.346;12.372;2023-05-10T04:50:58;11.60;76.60
36374;DHT22;22399;51.346;12.372;2023-05-10T04:53:26;11.70;76.60
36374;DHT22;22399;51.346;12.372;2023-05-10T04:55:56;11.80;76.60
36374;DHT22;22399;51.346;12.372;2023-05-10T04:58:24;11.80;76.50
36374;DHT22;22399;51.346;12.372;2023-05-10T05:00:52;11.90;76.50
36374;DHT22;22399;51.346;12.372;2023-05-10T05:03:20;12.10;76.50
36374;DHT22;22399;51.346;12.372;2023-05-10T05:05:49;12.30;76.30
36374;DHT22;22399;51.346;12.372;2023-05-10T05:08:17;12.50;76.20
36374;DHT22;22399;51.346;12.372;2023-05-10T05:10:46;12.60;75.80
36374;DHT22;22399;51.346;12.372;2023-05-10T05:13:18;12.80;75.60
36374;DHT22;22399;51.346;12.372;2023-05-10T05:15:46;12.90;75.50
36374;DHT22;22399;51.346;12.372;2023-05-10T05:18:14;13.10;75.10
36374;DHT22;22399;51.346;12.372;2023-05-10T05:20:43;13.30;74.80
36374;DHT22;22399;51.346;12.372;2023-05-10T05:23:11;13.60;74.40
36374;DHT22;22399;51.346;12.372;2023-05-10T05:25:39;14.00;74.10
36374;DHT22;22399;51.346;12.372;2023-05-10T05:28:08;14.40;73.40
36374;DHT22;22399;51.346;12.372;2023-05-10T05:30:37;14.60;72.90
36374;DHT22;22399;51.346;12.372;2023-05-10T05:33:05;15.00;72.50
36374;DHT22;22399;51.346;12.372;2023-05-10T05:35:34;15.40;71.80
36374;DHT22;22399;51.346;12.372;2023-05-10T05:38:02;15.60;70.40
36374;DHT22;22399;51.346;12.372;2023-05-10T05:40:30;15.70;69.40
36374;DHT22;22399;51.346;12.372;2023-05-10T05:42:59;15.80;69.10
36374;DHT22;22399;51.346;12.372;2023-05-10T05:45:27;15.70;68.60
36374;DHT22;22399;51.346;12.372;2023-05-10T05:47:57;15.60;68.50
36374;DHT22;22399;51.346;12.372;2023-05-10T05:50:26;15.40;68.40
36374;DHT22;22399;51.346;12.372;2023-05-10T05:52:55;15.30;68.40
36374;DHT22;22399;51.346;12.372;2023-05-10T05:55:23;15.30;68.30
36374;DHT22;22399;51.346;12.372;2023-05-10T05:57:52;15.10;68.30
36374;DHT22;22399;51.346;12.372;2023-05-10T06:00:21;15.00;69.10
36374;DHT22;22399;51.346;12.372;2023-05-10T06:02:49;14.90;68.60
36374;DHT22;22399;51.346;12.372;2023-05-10T06:05:19;14.80;68.80
36374;DHT22;22399;51.346;12.372;2023-05-10T06:07:48;14.70;69.00
36374;DHT22;22399;51.346;12.372;2023-05-10T06:10:16;14.70;69.20
36374;DHT22;22399;51.346;12.372;2023-05-10T06:12:44;14.70;69.20
36374;DHT22;22399;51.346;12.372;2023-05-10T06:15:13;14.70;69.20
36374;DHT22;22399;51.346;12.372;2023-05-10T06:17:42;14.70;69.30
36374;DHT22;22399;51.346;12.372;2023-05-10T06:20:11;14.80;69.50
36374;DHT22;22399;51.346;12.372;2023-05-10T06:22:41;14.90;69.40
36374;DHT22;22399;51.346;12.372;2023-05-10T06:25:10;15.00;69.10
36374;DHT22;22399;51.346;12.372;2023-05-10T06:27:38;15.10;69.00
36374;DHT22;22399;51.346;12.372;2023-05-10T06:30:07;15.30;68.80
36374;DHT22;22399;51.346;12.372;2023-05-10T06:32:39;15.40;68.90
36374;DHT22;22399;51.346;12.372;2023-05-10T06:35:08;16.10;68.70
36374;DHT22;22399;51.346;12.372;2023-05-10T06:37:36;16.90;67.60
36374;DHT22;22399;51.346;12.372;2023-05-10T06:40:07;17.40;65.90
36374;DHT22;22399;51.346;12.372;2023-05-10T06:42:36;17.40;64.50
36374;DHT22;22399;51.346;12.372;2023-05-10T06:45:05;17.30;64.70
36374;DHT22;22399;51.346;12.372;2023-05-10T06:47:34;17.70;65.10
36374;DHT22;22399;51.346;12.372;2023-05-10T06:50:05;18.50;63.80
36374;DHT22;22399;51.346;12.372;2023-05-10T06:52:34;18.90;62.20
36374;DHT22;22399;51.346;12.372;2023-05-10T06:55:02;19.00;61.60
36374;DHT22;22399;51.346;12.372;2023-05-10T06:57:32;19.70;60.80
36374;DHT22;22399;51.346;12.372;2023-05-10T07:00:01;19.90;59.50
36374;DHT22;22399;51.346;12.372;2023-05-10T07:02:31;19.60;59.30
36374;DHT22;22399;51.346;12.372;2023-05-10T07:04:59;19.10;59.30
36374;DHT22;22399;51.346;12.372;2023-05-10T07:07:29;18.90;59.70
36374;DHT22;22399;51.346;12.372;2023-05-10T07:09:57;18.70;60.10
36374;DHT22;22399;51.346;12.372;2023-05-10T07:12:26;18.50;59.90
36374;DHT22;22399;51.346;12.372;2023-05-10T07:14:55;18.20;60.40
36374;DHT22;22399;51.346;12.372;2023-05-10T07:17:24;18.80;61.00
36374;DHT22;22399;51.346;12.372;2023-05-10T07:19:52;19.10;59.70
36374;DHT22;22399;51.346;12.372;2023-05-10T07:22:20;19.30;59.20
36374;DHT22;22399;51.346;12.372;2023-05-10T07:24:48;19.20;59.00
36374;DHT22;22399;51.346;12.372;2023-05-10T07:27:16;19.30;59.30
36374;DHT22;22399;51.346;12.372;2023-05-10T07:29:44;19.30;59.00
36374;DHT22;22399;51.346;12.372;2023-05-10T07:32:14;19.30;59.20
36374;DHT22;22399;51.346;12.372;2023-05-10T07:34:43;19.20;58.80
36374;DHT22;22399;51.346;12.372;2023-05-10T07:37:11;19.50;58.70
36374;DHT22;22399;51.346;12.372;2023-05-10T07:39:40;19.50;58.40
36374;DHT22;22399;51.346;12.372;2023-05-10T07:42:08;19.70;58.60
36374;DHT22;22399;51.346;12.372;2023-05-10T07:44:37;19.90;58.00
36374;DHT22;22399;51.346;12.372;2023-05-10T07:47:05;19.50;57.70
36374;DHT22;22399;51.346;12.372;2023-05-10T07:49:35;19.00;58.20
36374;DHT22;22399;51.346;12.372;2023-05-10T07:52:03;18.80;58.60
36374;DHT22;22399;51.346;12.372;2023-05-10T07:54:31;18.60;59.10
36374;DHT22;22399;51.346;12.372;2023-05-10T07:57:00;18.40;59.30
36374;DHT22;22399;51.346;12.372;2023-05-10T07:59:29;18.50;59.80
36374;DHT22;22399;51.346;12.372;2023-05-10T08:01:57;19.00;59.80
36374;DHT22;22399;51.346;12.372;2023-05-10T08:04:25;19.20;59.30
36374;DHT22;22399;51.346;12.372;2023-05-10T08:06:54;19.20;59.10
36374;DHT22;22399;51.346;12.372;2023-05-10T08:09:23;19.10;58.90
36374;DHT22;22399;51.346;12.372;2023-05-10T08:11:51;18.80;59.30
36374;DHT22;22399;51.346;12.372;2023-05-10T08:14:19;18.70;59.70
36374;DHT22;22399;51.346;12.372;2023-05-10T08:16:47;18.80;60.00
36374;DHT22;22399;51.346;12.372;2023-05-10T08:19:15;18.70;59.80
36374;DHT22;22399;51.346;12.372;2023-05-10T08:21:45;18.70;60.10
36374;DHT22;22399;51.346;12.372;2023-05-10T08:24:15;18.80;60.30
36374;DHT22;22399;51.346;12.372;2023-05-10T08:26:43;18.70;60.20
36374;DHT22;22399;51.346;12.372;2023-05-10T08:29:11;18.30;60.30
36374;DHT22;22399;51.346;12.372;2023-05-10T08:31:39;18.00;61.40
36374;DHT22;22399;51.346;12.372;2023-05-10T08:34:08;18.00;62.20
36374;DHT22;22399;51.346;12.372;2023-05-10T08:36:36;17.90;62.70
36374;DHT22;22399;51.346;12.372;2023-05-10T08:39:04;17.50;63.30
36374;DHT22;22399;51.346;12.372;2023-05-10T08:41:46;17.30;64.10
36374;DHT22;22399;51.346;12.372;2023-05-10T08:44:14;17.20;64.60
36374;DHT22;22399;51.346;12.372;2023-05-10T08:46:45;16.80;65.10
36374;DHT22;22399;51.346;12.372;2023-05-10T08:49:16;16.70;66.20
36374;DHT22;22399;51.346;12.372;2023-05-10T08:51:47;16.60;66.60
36374;DHT22;22399;51.346;12.372;2023-05-10T08:54:18;16.50;67.20
36374;DHT22;22399;51.346;12.372;2023-05-10T08:56:47;16.50;67.70
36374;DHT22;22399;51.346;12.372;2023-05-10T08:59:16;16.40;68.30
36374;DHT22;22399;51.346;12.372;2023-05-10T09:01:44;16.20;68.60
36374;DHT22;22399;51.346;12.372;2023-05-10T09:04:13;16.10;69.20
36374;DHT22;22399;51.346;12.372;2023-05-10T09:06:41;16.00;69.60
36374;DHT22;22399;51.346;12.372;2023-05-10T09:09:10;16.00;69.80
36374;DHT22;22399;51.346;12.372;2023-05-10T09:11:38;15.80;70.20
36374;DHT22;22399;51.346;12.372;2023-05-10T09:14:08;15.60;71.10
36374;DHT22;22399;51.346;12.372;2023-05-10T09:16:37;15.40;71.90
36374;DHT22;22399;51.346;12.372;2023-05-10T09:19:06;15.30;72.60
36374;DHT22;22399;51.346;12.372;2023-05-10T09:21:35;15.20;73.10
36374;DHT22;22399;51.346;12.372;2023-05-10T09:24:05;15.10;73.60
36374;DHT22;22399;51.346;12.372;2023-05-10T09:26:33;14.90;74.40
36374;DHT22;22399;51.346;12.372;2023-05-10T09:29:02;14.70;75.00
36374;DHT22;22399;51.346;12.372;2023-05-10T09:31:44;14.60;75.80
36374;DHT22;22399;51.346;12.372;2023-05-10T09:34:16;14.40;76.80
36374;DHT22;22399;51.346;12.372;2023-05-10T09:36:51;14.20;77.70
36374;DHT22;22399;51.346;12.372;2023-05-10T09:39:20;14.10;78.70
36374;DHT22;22399;51.346;12.372;2023-05-10T09:41:48;13.90;79.90
36374;DHT22;22399;51.346;12.372;2023-05-10T09:44:17;13.70;81.10
36374;DHT22;22399;51.346;12.372;2023-05-10T09:46:51;13.60;81.70
36374;DHT22;22399;51.346;12.372;2023-05-10T09:49:20;13.60;82.60
36374;DHT22;22399;51.346;12.372;2023-05-10T09:51:57;13.50;83.50
36374;DHT22;22399;51.346;12.372;2023-05-10T09:54:27;13.50;84.60
36374;DHT22;22399;51.346;12.372;2023-05-10T09:56:55;13.50;85.40
36374;DHT22;22399;51.346;12.372;2023-05-10T09:59:24;13.50;86.10
36374;DHT22;22399;51.346;12.372;2023-05-10T10:01:54;13.50;86.90
36374;DHT22;22399;51.346;12.372;2023-05-10T10:04:23;13.60;87.50
36374;DHT22;22399;51.346;12.372;2023-05-10T10:06:58;13.70;87.60
36374;DHT22;22399;51.346;12.372;2023-05-10T10:09:27;13.70;87.90
36374;DHT22;22399;51.346;12.372;2023-05-10T10:11:55;13.80;88.70
36374;DHT22;22399;51.346;12.372;2023-05-10T10:14:24;13.90;89.00
36374;DHT22;22399;51.346;12.372;2023-05-10T10:16:54;14.00;89.20
36374;DHT22;22399;51.346;12.372;2023-05-10T10:19:34;14.10;89.30
36374;DHT22;22399;51.346;12.372;2023-05-10T10:22:04;14.20;89.50
36374;DHT22;22399;51.346;12.372;2023-05-10T10:24:33;14.20;90.00
36374;DHT22;22399;51.346;12.372;2023-05-10T10:27:03;14.30;90.10
36374;DHT22;22399;51.346;12.372;2023-05-10T10:29:34;14.30;90.20
36374;DHT22;22399;51.346;12.372;2023-05-10T10:32:08;14.20;90.40
36374;DHT22;22399;51.346;12.372;2023-05-10T10:34:39;14.10;90.80
36374;DHT22;22399;51.346;12.372;2023-05-10T10:37:07;14.10;91.10
36374;DHT22;22399;51.346;12.372;2023-05-10T10:39:36;14.10;91.70
36374;DHT22;22399;51.346;12.372;2023-05-10T10:42:04;14.10;92.70
36374;DHT22;22399;51.346;12.372;2023-05-10T10:44:33;14.20;93.80
36374;DHT22;22399;51.346;12.372;2023-05-10T10:47:03;14.30;94.80
36374;DHT22;22399;51.346;12.372;2023-05-10T10:49:37;14.60;95.10
36374;DHT22;22399;51.346;12.372;2023-05-10T10:52:22;14.60;94.60
36374;DHT22;22399;51.346;12.372;2023-05-10T10:54:51;14.50;94.60
36374;DHT22;22399;51.346;12.372;2023-05-10T10:57:19;14.50;94.70
36374;DHT22;22399;51.346;12.372;2023-05-10T10:59:49;14.50;94.70
36374;DHT22;22399;51.346;12.372;2023-05-10T11:02:32;14.40;94.80
36374;DHT22;22399;51.346;12.372;2023-05-10T11:05:10;14.40;95.20
36374;DHT22;22399;51.346;12.372;2023-05-10T11:07:51;14.50;95.20
36374;DHT22;22399;51.346;12.372;2023-05-10T11:10:19;14.50;95.10
36374;DHT22;22399;51.346;12.372;2023-05-10T11:12:51;14.50;95.20
36374;DHT22;22399;51.346;12.372;2023-05-10T11:15:19;14.30;95.50
36374;DHT22;22399;51.346;12.372;2023-05-10T11:17:48;14.20;96.50
36374;DHT22;22399;51.346;12.372;2023-05-10T11:20:20;14.30;97.10
36374;DHT22;22399;51.346;12.372;2023-05-10T11:22:52;14.30;97.20
36374;DHT22;22399;51.346;12.372;2023-05-10T11:25:23;14.30;97.80
36374;DHT22;22399;51.346;12.372;2023-05-10T11:27:54;14.20;98.30
36374;DHT22;22399;51.346;12.372;2023-05-10T11:30:23;14.10;98.90
36374;DHT22;22399;51.346;12.372;2023-05-10T11:32:52;14.20;99.60
36374;DHT22;22399;51.346;12.372;2023-05-10T11:35:21;14.40;99.90
36374;DHT22;22399;51.346;12.372;2023-05-10T11:37:50;14.50;99.90
36374;DHT22;22399;51.346;12.372;2023-05-10T11:40:18;14.50;99.90
36374;DHT22;22399;51.346;12.372;2023-05-10T11:42:47;14.60;99.90
36374;DHT22;22399;51.346;12.372;2023-05-10T11:45:15;14.70;99.90
36374;DHT22;22399;51.346;12.372;2023-05-10T11:47:43;15.00;99.90
36374;DHT22;22399;51.346;12.372;2023-05-10T11:50:11;15.00;99.90
36374;DHT22;22399;51.346;12.372;2023-05-10T11:52:41;15.10;99.90
36374;DHT22;22399;51.346;12.372;2023-05-10T11:55:09;15.20;99.90
36374;DHT22;22399;51.346;12.372;2023-05-10T11:57:37;15.40;99.90
36374;DHT22;22399;51.346;12.372;2023-05-10T12:00:08;15.30;99.90
36374;DHT22;22399;51.346;12.372;2023-05-10T12:02:37;15.20;99.90
36374;DHT22;22399;51.346;12.372;2023-05-10T12:05:06;15.30;99.90
36374;DHT22;22399;51.346;12.372;2023-05-10T12:07:34;15.30;99.90
36374;DHT22;22399;51.346;12.372;2023-05-10T12:10:06;15.30;99.90
36374;DHT22;22399;51.346;12.372;2023-05-10T12:12:36;15.30;99.90
36374;DHT22;22399;51.346;12.372;2023-05-10T12:15:05;15.40;99.90
36374;DHT22;22399;51.346;12.372;2023-05-10T12:17:34;15.40;99.90
36374;DHT22;22399;51.346;12.372;2023-05-10T12:20:18;15.30;99.90
36374;DHT22;22399;51.346;12.372;2023-05-10T12:22:49;15.40;99.90
36374;DHT22;22399;51.346;12.372;2023-05-10T12:25:20;15.30;99.90
36374;DHT22;22399;51.346;12.372;2023-05-10T12:27:49;15.30;99.90
36374;DHT22;22399;51.346;12.372;2023-05-10T12:30:19;15.40;99.90
36374;DHT22;22399;51.346;12.372;2023-05-10T12:32:47;15.50;99.90
36374;DHT22;22399;51.346;12.372;2023-05-10T12:35:15;15.70;99.90
36374;DHT22;22399;51.346;12.372;2023-05-10T12:37:44;15.70;99.90
36374;DHT22;22399;51.346;12.372;2023-05-10T12:40:12;15.80;99.90
36374;DHT22;22399;51.346;12.372;2023-05-10T12:42:42;15.90;99.90
36374;DHT22;22399;51.346;12.372;2023-05-10T12:45:11;15.80;99.90
36374;DHT22;22399;51.346;12.372;2023-05-10T12:47:40;15.80;99.90
36374;DHT22;22399;51.346;12.372;2023-05-10T12:50:10;15.90;99.90
36374;DHT22;22399;51.346;12.372;2023-05-10T12:52:38;16.00;99.90
36374;DHT22;22399;51.346;12.372;2023-05-10T12:55:07;16.10;99.90
36374;DHT22;22399;51.346;12.372;2023-05-10T12:57:35;16.10;99.90
36374;DHT22;22399;51.346;12.372;2023-05-10T13:00:06;16.00;99.90
36374;DHT22;22399;51.346;12.372;2023-05-10T13:02:34;16.00;99.90
36374;DHT22;22399;51.346;12.372;2023-05-10T13:05:03;16.00;99.90
36374;DHT22;22399;51.346;12.372;2023-05-10T13:07:31;16.00;99.90
36374;DHT22;22399;51.346;12.372;2023-05-10T13:09:59;16.00;99.90
36374;DHT22;22399;51.346;12.372;2023-05-10T13:12:27;16.10;99.90
36374;DHT22;22399;51.346;12.372;2023-05-10T13:14:56;16.20;99.90
36374;DHT22;22399;51.346;12.372;2023-05-10T13:17:26;16.30;99.90
36374;DHT22;22399;51.346;12.372;2023-05-10T13:19:54;16.40;99.90
36374;DHT22;22399;51.346;12.372;2023-05-10T13:22:22;16.60;99.90
36374;DHT22;22399;51.346;12.372;2023-05-10T13:25:06;16.60;99.90
36374;DHT22;22399;51.346;12.372;2023-05-10T13:27:34;16.70;99.90
36374;DHT22;22399;51.346;12.372;2023-05-10T13:30:03;16.80;99.90
36374;DHT22;22399;51.346;12.372;2023-05-10T13:32:32;16.70;99.90
36374;DHT22;22399;51.346;12.372;2023-05-10T13:35:01;16.70;99.90
36374;DHT22;22399;51.346;12.372;2023-05-10T13:37:30;16.70;99.90
36374;DHT22;22399;51.346;12.372;2023-05-10T13:39:58;16.60;99.90
36374;DHT22;22399;51.346;12.372;2023-05-10T13:42:26;16.60;99.90
36374;DHT22;22399;51.346;12.372;2023-05-10T13:44:54;16.50;99.90
36374;DHT22;22399;51.346;12.372;2023-05-10T13:47:22;16.50;99.90
36374;DHT22;22399;51.346;12.372;2023-05-10T13:49:52;16.40;99.90
36374;DHT22;22399;51.346;12.372;2023-05-10T13:52:20;16.50;99.90
36374;DHT22;22399;51.346;12.372;2023-05-10T13:54:48;16.60;99.90
36374;DHT22;22399;51.346;12.372;2023-05-10T13:57:18;16.60;99.90
36374;DHT22;22399;51.346;12.372;2023-05-10T13:59:46;16.60;99.90
36374;DHT22;22399;51.346;12.372;2023-05-10T14:02:15;16.50;99.90
36374;DHT22;22399;51.346;12.372;2023-05-10T14:04:43;16.30;99.90
36374;DHT22;22399;51.346;12.372;2023-05-10T14:07:12;16.10;99.90
36374;DHT22;22399;51.346;12.372;2023-05-10T14:09:41;16.00;99.90
36374;DHT22;22399;51.346;12.372;2023-05-10T14:12:09;15.90;99.90
36374;DHT22;22399;51.346;12.372;2023-05-10T14:14:38;15.90;99.90
36374;DHT22;22399;51.346;12.372;2023-05-10T14:17:07;15.90;99.90
36374;DHT22;22399;51.346;12.372;2023-05-10T14:19:38;15.90;99.90
36374;DHT22;22399;51.346;12.372;2023-05-10T14:22:07;15.90;99.90
36374;DHT22;22399;51.346;12.372;2023-05-10T14:24:37;15.90;99.90
36374;DHT22;22399;51.346;12.372;2023-05-10T14:27:06;15.90;99.90
36374;DHT22;22399;51.346;12.372;2023-05-10T14:29:34;15.90;99.90
36374;DHT22;22399;51.346;12.372;2023-05-10T14:32:02;15.80;99.90
36374;DHT22;22399;51.346;12.372;2023-05-10T14:34:31;15.80;99.90
36374;DHT22;22399;51.346;12.372;2023-05-10T14:36:59;16.00;99.90
36374;DHT22;22399;51.346;12.372;2023-05-10T14:39:28;16.10;99.90
36374;DHT22;22399;51.346;12.372;2023-05-10T14:41:58;16.20;99.90
36374;DHT22;22399;51.346;12.372;2023-05-10T14:44:26;16.20;99.90
36374;DHT22;22399;51.346;12.372;2023-05-10T14:46:55;16.20;99.90
36374;DHT22;22399;51.346;12.372;2023-05-10T14:49:24;16.20;99.90
36374;DHT22;22399;51.346;12.372;2023-05-10T14:51:53;16.00;99.90
36374;DHT22;22399;51.346;12.372;2023-05-10T14:54:21;15.80;99.90
36374;DHT22;22399;51.346;12.372;2023-05-10T14:56:49;15.60;99.90
36374;DHT22;22399;51.346;12.372;2023-05-10T14:59:19;15.50;99.90
36374;DHT22;22399;51.346;12.372;2023-05-10T15:01:48;15.30;99.90
36374;DHT22;22399;51.346;12.372;2023-05-10T15:04:16;15.10;99.90
36374;DHT22;22399;51.346;12.372;2023-05-10T15:06:45;14.90;99.90
36374;DHT22;22399;51.346;12.372;2023-05-10T15:09:13;14.70;99.90
36374;DHT22;22399;51.346;12.372;2023-05-10T15:11:42;14.50;99.90
36374;DHT22;22399;51.346;12.372;2023-05-10T15:14:11;14.30;99.90
36374;DHT22;22399;51.346;12.372;2023-05-10T15:16:41;14.20;99.90
36374;DHT22;22399;51.346;12.372;2023-05-10T15:19:09;14.10;99.90
36374;DHT22;22399;51.346;12.372;2023-05-10T15:21:38;14.00;99.90
36374;DHT22;22399;51.346;12.372;2023-05-10T15:24:08;13.90;99.90
36374;DHT22;22399;51.346;12.372;2023-05-10T15:26:37;13.80;99.90
36374;DHT22;22399;51.346;12.372;2023-05-10T15:29:05;13.70;99.90